AEZ2382 LIEE-LIPE
Flight info
| Callsign | AEZ2382 |
|---|---|
| Flight time | 0h 58m |
| Altitude | 18000 |
| Route | KOVAS Q125 DEXUL/N0463F340 DCT ELB DCT MAREL DCT GINAR/N0397F180 L12 LOMED |
| Aircraft | A319/M-SDE3FGHIRWY/LB1 |
Departure
| Time | 2026-05-09 09:19 |
|---|---|
| Airport | Cagliari Elmas Airport (LIEE) |
Arrival
| Time | 2026-05-09 10:18 |
|---|---|
| Airport | Bologna Guglielmo Marconi Airport (LIPE) |
| Time | Latitude | Longitude | Altitude | Speed | Heading |
|---|---|---|---|---|---|
| 2026-05-09 08:50 | 39.25317 | 9.05804 | 20 ft | 0 kts | 113° |
| 2026-05-09 09:04 | 39.25317 | 9.05803 | 20 ft | 1 kts | 113° |
| 2026-05-09 09:05 | 39.25323 | 9.05786 | 20 ft | 2 kts | 112° |
| 2026-05-09 09:05 | 39.25331 | 9.05770 | 20 ft | 2 kts | 136° |
| 2026-05-09 09:05 | 39.25343 | 9.05758 | 20 ft | 2 kts | 155° |
| 2026-05-09 09:05 | 39.25357 | 9.05752 | 20 ft | 2 kts | 174° |
| 2026-05-09 09:06 | 39.25372 | 9.05753 | 20 ft | 2 kts | 193° |
| 2026-05-09 09:06 | 39.25386 | 9.05760 | 20 ft | 2 kts | 212° |
| 2026-05-09 09:06 | 39.25395 | 9.05768 | 20 ft | 0 kts | 226° |
| 2026-05-09 09:06 | 39.25400 | 9.05776 | 20 ft | 0 kts | 230° |
| 2026-05-09 09:12 | 39.25399 | 9.05774 | 20 ft | 0 kts | 230° |
| 2026-05-09 09:12 | 39.25389 | 9.05760 | 20 ft | 3 kts | 229° |
| 2026-05-09 09:13 | 39.25373 | 9.05735 | 20 ft | 3 kts | 231° |
| 2026-05-09 09:13 | 39.25355 | 9.05702 | 20 ft | 5 kts | 244° |
| 2026-05-09 09:13 | 39.25362 | 9.05645 | 20 ft | 8 kts | 300° |
| 2026-05-09 09:13 | 39.25390 | 9.05573 | 20 ft | 10 kts | 285° |
| 2026-05-09 09:14 | 39.25408 | 9.05471 | 20 ft | 12 kts | 286° |
| 2026-05-09 09:14 | 39.25451 | 9.05360 | 20 ft | 14 kts | 306° |
| 2026-05-09 09:14 | 39.25529 | 9.05263 | 20 ft | 16 kts | 317° |
| 2026-05-09 09:14 | 39.25618 | 9.05158 | 20 ft | 18 kts | 318° |
| 2026-05-09 09:15 | 39.25717 | 9.05045 | 20 ft | 19 kts | 318° |
| 2026-05-09 09:15 | 39.25817 | 9.04927 | 20 ft | 19 kts | 317° |
| 2026-05-09 09:15 | 39.25920 | 9.04810 | 20 ft | 20 kts | 317° |
| 2026-05-09 09:15 | 39.26023 | 9.04687 | 20 ft | 20 kts | 319° |
| 2026-05-09 09:16 | 39.26104 | 9.04592 | 20 ft | 14 kts | 308° |
| 2026-05-09 09:16 | 39.26127 | 9.04505 | 21 ft | 0 kts | 275° |
| 2026-05-09 09:16 | 39.26127 | 9.04504 | 21 ft | 0 kts | 275° |
| 2026-05-09 09:17 | 39.26127 | 9.04501 | 21 ft | 1 kts | 275° |
| 2026-05-09 09:17 | 39.26128 | 9.04481 | 21 ft | 3 kts | 274° |
| 2026-05-09 09:17 | 39.26124 | 9.04440 | 20 ft | 5 kts | 252° |
| 2026-05-09 09:18 | 39.26096 | 9.04391 | 20 ft | 8 kts | 218° |
| 2026-05-09 09:18 | 39.26053 | 9.04381 | 20 ft | 0 kts | 140° |
| 2026-05-09 09:18 | 39.26033 | 9.04403 | 20 ft | 14 kts | 139° |
| 2026-05-09 09:19 | 39.25738 | 9.04738 | 21 ft | 95 kts | 137° |
| 2026-05-09 09:19 | 39.25074 | 9.05516 | 31 ft | 158 kts | 137° |
| 2026-05-09 09:19 | 39.24232 | 9.06516 | 596 ft | 166 kts | 137° |
| 2026-05-09 09:19 | 39.23366 | 9.07548 | 1293 ft | 175 kts | 136° |
| 2026-05-09 09:20 | 39.22496 | 9.08600 | 2150 ft | 174 kts | 134° |
| 2026-05-09 09:20 | 39.21592 | 9.09701 | 2765 ft | 188 kts | 135° |
| 2026-05-09 09:20 | 39.20573 | 9.10920 | 3313 ft | 209 kts | 136° |
| 2026-05-09 09:20 | 39.19442 | 9.12157 | 3986 ft | 224 kts | 150° |
| 2026-05-09 09:21 | 39.17931 | 9.12570 | 4873 ft | 231 kts | 185° |
| 2026-05-09 09:21 | 39.16457 | 9.11822 | 5808 ft | 235 kts | 217° |
| 2026-05-09 09:21 | 39.15404 | 9.10234 | 6821 ft | 236 kts | 232° |
| 2026-05-09 09:21 | 39.14427 | 9.08590 | 7828 ft | 234 kts | 233° |
| 2026-05-09 09:22 | 39.13743 | 9.06719 | 8730 ft | 239 kts | 257° |
| 2026-05-09 09:22 | 39.13762 | 9.04604 | 9613 ft | 245 kts | 281° |
| 2026-05-09 09:22 | 39.14484 | 9.02609 | 10299 ft | 261 kts | 304° |
| 2026-05-09 09:22 | 39.15848 | 9.00956 | 10877 ft | 281 kts | 319° |
| 2026-05-09 09:23 | 39.17458 | 8.99443 | 11492 ft | 293 kts | 319° |
| 2026-05-09 09:23 | 39.19067 | 8.97845 | 12298 ft | 294 kts | 317° |
| 2026-05-09 09:23 | 39.20629 | 8.96170 | 13143 ft | 295 kts | 316° |
| 2026-05-09 09:23 | 39.22213 | 8.94447 | 13989 ft | 299 kts | 321° |
| 2026-05-09 09:24 | 39.24070 | 8.93264 | 14729 ft | 310 kts | 340° |
| 2026-05-09 09:24 | 39.26265 | 8.92819 | 15204 ft | 329 kts | 353° |
| 2026-05-09 09:24 | 39.28635 | 8.92666 | 15547 ft | 347 kts | 354° |
| 2026-05-09 09:24 | 39.31109 | 8.92524 | 15847 ft | 365 kts | 354° |
| 2026-05-09 09:25 | 39.33710 | 8.92374 | 16143 ft | 380 kts | 354° |
| 2026-05-09 09:25 | 39.36385 | 8.92198 | 16411 ft | 396 kts | 354° |
| 2026-05-09 09:25 | 39.39178 | 8.92003 | 16751 ft | 408 kts | 354° |
| 2026-05-09 09:25 | 39.42069 | 8.92168 | 17277 ft | 418 kts | 6° |
| 2026-05-09 09:26 | 39.44887 | 8.93128 | 17868 ft | 423 kts | 19° |
| 2026-05-09 09:26 | 39.47534 | 8.94774 | 18395 ft | 430 kts | 27° |
| 2026-05-09 09:26 | 39.50151 | 8.96662 | 18871 ft | 434 kts | 28° |
| 2026-05-09 09:26 | 39.52785 | 8.98600 | 19333 ft | 440 kts | 28° |
| 2026-05-09 09:27 | 39.55488 | 9.00571 | 19808 ft | 445 kts | 27° |
| 2026-05-09 09:27 | 39.58212 | 9.02534 | 20272 ft | 450 kts | 27° |
| 2026-05-09 09:27 | 39.60978 | 9.04513 | 20725 ft | 454 kts | 26° |
| 2026-05-09 09:27 | 39.63824 | 9.06308 | 21186 ft | 457 kts | 20° |
| 2026-05-09 09:28 | 39.66819 | 9.07794 | 21651 ft | 458 kts | 15° |
| 2026-05-09 09:28 | 39.69879 | 9.08947 | 22087 ft | 461 kts | 11° |
| 2026-05-09 09:28 | 39.72984 | 9.09980 | 22498 ft | 464 kts | 10° |
| 2026-05-09 09:28 | 39.76134 | 9.11000 | 22907 ft | 467 kts | 9° |
| 2026-05-09 09:29 | 39.79292 | 9.12033 | 23290 ft | 472 kts | 9° |
| 2026-05-09 09:29 | 39.82495 | 9.13096 | 23724 ft | 475 kts | 10° |
| 2026-05-09 09:29 | 39.85712 | 9.14198 | 24167 ft | 479 kts | 11° |
| 2026-05-09 09:29 | 39.88901 | 9.15460 | 24609 ft | 482 kts | 13° |
| 2026-05-09 09:30 | 39.92074 | 9.16781 | 25152 ft | 482 kts | 13° |
| 2026-05-09 09:30 | 39.95263 | 9.18123 | 25653 ft | 483 kts | 13° |
| 2026-05-09 09:30 | 39.98486 | 9.19482 | 26009 ft | 485 kts | 13° |
| 2026-05-09 09:30 | 40.01675 | 9.20825 | 26069 ft | 486 kts | 13° |
| 2026-05-09 09:31 | 40.04922 | 9.22191 | 26065 ft | 486 kts | 13° |
| 2026-05-09 09:31 | 40.08109 | 9.23530 | 26070 ft | 486 kts | 13° |
| 2026-05-09 09:31 | 40.11324 | 9.24882 | 26073 ft | 485 kts | 13° |
| 2026-05-09 09:32 | 40.17728 | 9.27574 | 26071 ft | 483 kts | 13° |
| 2026-05-09 09:32 | 40.20923 | 9.28919 | 26068 ft | 483 kts | 13° |
| 2026-05-09 09:32 | 40.24118 | 9.30268 | 26062 ft | 483 kts | 13° |
| 2026-05-09 09:32 | 40.27326 | 9.31622 | 26059 ft | 483 kts | 13° |
| 2026-05-09 09:33 | 40.30504 | 9.32965 | 26058 ft | 482 kts | 13° |
| 2026-05-09 09:33 | 40.33664 | 9.34303 | 26051 ft | 481 kts | 13° |
| 2026-05-09 09:33 | 40.36861 | 9.35656 | 26059 ft | 482 kts | 13° |
| 2026-05-09 09:33 | 40.40078 | 9.37021 | 26061 ft | 482 kts | 13° |
| 2026-05-09 09:34 | 40.43252 | 9.38368 | 26065 ft | 481 kts | 13° |
| 2026-05-09 09:34 | 40.46428 | 9.39715 | 26061 ft | 481 kts | 13° |
| 2026-05-09 09:34 | 40.49609 | 9.41067 | 26059 ft | 481 kts | 13° |
| 2026-05-09 09:36 | 40.71827 | 9.50549 | 26061 ft | 480 kts | 13° |
| 2026-05-09 09:36 | 40.75002 | 9.51908 | 26050 ft | 481 kts | 13° |
| 2026-05-09 09:36 | 40.78183 | 9.53272 | 26049 ft | 480 kts | 13° |
| 2026-05-09 09:37 | 40.81384 | 9.54647 | 26051 ft | 480 kts | 13° |
| 2026-05-09 09:37 | 40.84512 | 9.55992 | 26055 ft | 479 kts | 13° |
| 2026-05-09 09:37 | 40.87692 | 9.57359 | 26048 ft | 479 kts | 13° |
| 2026-05-09 09:37 | 40.90879 | 9.58732 | 26053 ft | 479 kts | 13° |
| 2026-05-09 09:38 | 40.94033 | 9.60092 | 26048 ft | 478 kts | 13° |
| 2026-05-09 09:38 | 40.97185 | 9.61452 | 26044 ft | 478 kts | 13° |
| 2026-05-09 09:38 | 41.00333 | 9.62810 | 26047 ft | 478 kts | 13° |
| 2026-05-09 09:38 | 41.03500 | 9.64178 | 26047 ft | 479 kts | 13° |
| 2026-05-09 09:39 | 41.06665 | 9.65548 | 26049 ft | 479 kts | 13° |
| 2026-05-09 09:39 | 41.09852 | 9.66929 | 26049 ft | 479 kts | 13° |
| 2026-05-09 09:39 | 41.13014 | 9.68298 | 26044 ft | 478 kts | 13° |
| 2026-05-09 09:39 | 41.16154 | 9.69662 | 26045 ft | 478 kts | 13° |
| 2026-05-09 09:40 | 41.19315 | 9.71036 | 26047 ft | 478 kts | 13° |
| 2026-05-09 09:40 | 41.22464 | 9.72406 | 26042 ft | 477 kts | 13° |
| 2026-05-09 09:40 | 41.25631 | 9.73785 | 26047 ft | 477 kts | 13° |
| 2026-05-09 09:40 | 41.28745 | 9.75141 | 26044 ft | 476 kts | 13° |
| 2026-05-09 09:41 | 41.31912 | 9.76521 | 26045 ft | 476 kts | 13° |
| 2026-05-09 09:41 | 41.35032 | 9.77885 | 26050 ft | 476 kts | 13° |
| 2026-05-09 09:41 | 41.38206 | 9.79273 | 26046 ft | 476 kts | 13° |
| 2026-05-09 09:41 | 41.41342 | 9.80644 | 26046 ft | 477 kts | 13° |
| 2026-05-09 09:42 | 41.44480 | 9.82019 | 26052 ft | 475 kts | 13° |
| 2026-05-09 09:42 | 41.47619 | 9.83396 | 26048 ft | 476 kts | 13° |
| 2026-05-09 09:42 | 41.50760 | 9.84773 | 26048 ft | 476 kts | 13° |
| 2026-05-09 09:42 | 41.53896 | 9.86153 | 26048 ft | 475 kts | 13° |
| 2026-05-09 09:43 | 41.57023 | 9.87528 | 26058 ft | 474 kts | 13° |
| 2026-05-09 09:43 | 41.60151 | 9.88907 | 26053 ft | 474 kts | 13° |
| 2026-05-09 09:43 | 41.63258 | 9.90275 | 26058 ft | 475 kts | 13° |
| 2026-05-09 09:43 | 41.66378 | 9.91649 | 26054 ft | 474 kts | 13° |
| 2026-05-09 09:44 | 41.69509 | 9.93029 | 26055 ft | 473 kts | 13° |
| 2026-05-09 09:44 | 41.72660 | 9.94421 | 26055 ft | 473 kts | 13° |
| 2026-05-09 09:44 | 41.75767 | 9.95794 | 26059 ft | 472 kts | 13° |
| 2026-05-09 09:44 | 41.78872 | 9.97169 | 26062 ft | 472 kts | 13° |
| 2026-05-09 09:45 | 41.81982 | 9.98547 | 26060 ft | 473 kts | 13° |
| 2026-05-09 09:45 | 41.85093 | 9.99927 | 26059 ft | 473 kts | 13° |
| 2026-05-09 09:45 | 41.88222 | 10.01317 | 26063 ft | 472 kts | 13° |
| 2026-05-09 09:45 | 41.91334 | 10.02700 | 26066 ft | 472 kts | 13° |
| 2026-05-09 09:46 | 41.94436 | 10.04081 | 26063 ft | 471 kts | 13° |
| 2026-05-09 09:46 | 41.97538 | 10.05462 | 26060 ft | 472 kts | 13° |
| 2026-05-09 09:46 | 42.00651 | 10.06851 | 26061 ft | 471 kts | 13° |
| 2026-05-09 09:46 | 42.03779 | 10.08250 | 26060 ft | 471 kts | 13° |
| 2026-05-09 09:47 | 42.06869 | 10.09629 | 26062 ft | 470 kts | 13° |
| 2026-05-09 09:47 | 42.09968 | 10.11018 | 26062 ft | 470 kts | 13° |
| 2026-05-09 09:47 | 42.13081 | 10.12414 | 26063 ft | 470 kts | 13° |
| 2026-05-09 09:47 | 42.16180 | 10.13804 | 26064 ft | 470 kts | 13° |
| 2026-05-09 09:48 | 42.19273 | 10.15190 | 26062 ft | 470 kts | 13° |
| 2026-05-09 09:48 | 42.22368 | 10.16582 | 26063 ft | 470 kts | 13° |
| 2026-05-09 09:48 | 42.25470 | 10.17975 | 26061 ft | 470 kts | 13° |
| 2026-05-09 09:48 | 42.28490 | 10.19336 | 26061 ft | 470 kts | 13° |
| 2026-05-09 09:49 | 42.31640 | 10.20755 | 26062 ft | 469 kts | 13° |
| 2026-05-09 09:49 | 42.34758 | 10.22162 | 26062 ft | 469 kts | 13° |
| 2026-05-09 09:49 | 42.37815 | 10.23544 | 26062 ft | 469 kts | 13° |
| 2026-05-09 09:49 | 42.40910 | 10.24943 | 26060 ft | 469 kts | 13° |
| 2026-05-09 09:50 | 42.44002 | 10.26343 | 26060 ft | 468 kts | 13° |
| 2026-05-09 09:50 | 42.47100 | 10.27746 | 26063 ft | 469 kts | 13° |
| 2026-05-09 09:50 | 42.50180 | 10.29144 | 26060 ft | 468 kts | 13° |
| 2026-05-09 09:50 | 42.53258 | 10.30543 | 26056 ft | 468 kts | 13° |
| 2026-05-09 09:51 | 42.56352 | 10.31950 | 26060 ft | 468 kts | 13° |
| 2026-05-09 09:51 | 42.59438 | 10.33355 | 26060 ft | 468 kts | 13° |
| 2026-05-09 09:51 | 42.62518 | 10.34757 | 26060 ft | 468 kts | 13° |
| 2026-05-09 09:51 | 42.65559 | 10.36141 | 26058 ft | 467 kts | 13° |
| 2026-05-09 09:52 | 42.68678 | 10.37565 | 26059 ft | 468 kts | 13° |
| 2026-05-09 09:52 | 42.71762 | 10.38977 | 26058 ft | 468 kts | 13° |
| 2026-05-09 09:52 | 42.74809 | 10.40372 | 26060 ft | 468 kts | 13° |
| 2026-05-09 09:52 | 42.77915 | 10.41798 | 26059 ft | 468 kts | 13° |
| 2026-05-09 09:53 | 42.81007 | 10.43222 | 26059 ft | 467 kts | 13° |
| 2026-05-09 09:53 | 42.84048 | 10.44624 | 26056 ft | 467 kts | 13° |
| 2026-05-09 09:53 | 42.87126 | 10.46043 | 26054 ft | 467 kts | 13° |
| 2026-05-09 09:53 | 42.90183 | 10.47456 | 26055 ft | 466 kts | 13° |
| 2026-05-09 09:54 | 42.93268 | 10.48883 | 26052 ft | 467 kts | 13° |
| 2026-05-09 09:54 | 42.96333 | 10.50301 | 26054 ft | 467 kts | 13° |
| 2026-05-09 09:54 | 42.99401 | 10.51722 | 26055 ft | 466 kts | 13° |
| 2026-05-09 09:54 | 43.02483 | 10.53153 | 26053 ft | 466 kts | 13° |
| 2026-05-09 09:55 | 43.05536 | 10.54571 | 26054 ft | 465 kts | 13° |
| 2026-05-09 09:55 | 43.08585 | 10.55989 | 26057 ft | 464 kts | 13° |
| 2026-05-09 09:55 | 43.11681 | 10.57429 | 26056 ft | 464 kts | 13° |
| 2026-05-09 09:55 | 43.14795 | 10.58879 | 26059 ft | 464 kts | 13° |
| 2026-05-09 09:56 | 43.17846 | 10.60304 | 26059 ft | 464 kts | 13° |
| 2026-05-09 09:56 | 43.20899 | 10.61728 | 26065 ft | 464 kts | 13° |
| 2026-05-09 09:56 | 43.23944 | 10.63151 | 26067 ft | 465 kts | 13° |
| 2026-05-09 09:56 | 43.27013 | 10.64587 | 26064 ft | 464 kts | 13° |
| 2026-05-09 09:57 | 43.30071 | 10.66020 | 26064 ft | 463 kts | 13° |
| 2026-05-09 09:57 | 43.33127 | 10.67450 | 26070 ft | 463 kts | 13° |
| 2026-05-09 09:57 | 43.36188 | 10.68879 | 26069 ft | 463 kts | 13° |
| 2026-05-09 09:57 | 43.39270 | 10.70323 | 26065 ft | 464 kts | 13° |
| 2026-05-09 09:58 | 43.42301 | 10.71743 | 26070 ft | 463 kts | 13° |
| 2026-05-09 09:58 | 43.45339 | 10.73169 | 26013 ft | 463 kts | 13° |
| 2026-05-09 09:58 | 43.48416 | 10.74615 | 25759 ft | 462 kts | 13° |
| 2026-05-09 09:58 | 43.51442 | 10.76042 | 25511 ft | 459 kts | 13° |
| 2026-05-09 09:59 | 43.54433 | 10.77452 | 25265 ft | 456 kts | 13° |
| 2026-05-09 09:59 | 43.57416 | 10.78863 | 25018 ft | 453 kts | 13° |
| 2026-05-09 09:59 | 43.60425 | 10.80285 | 24733 ft | 453 kts | 13° |
| 2026-05-09 09:59 | 43.63369 | 10.81675 | 24170 ft | 452 kts | 13° |
| 2026-05-09 10:00 | 43.66353 | 10.83085 | 23549 ft | 445 kts | 13° |
| 2026-05-09 10:00 | 43.69257 | 10.84456 | 23031 ft | 442 kts | 14° |
| 2026-05-09 10:00 | 43.72161 | 10.85829 | 22473 ft | 437 kts | 14° |
| 2026-05-09 10:00 | 43.75017 | 10.87181 | 21904 ft | 433 kts | 14° |
| 2026-05-09 10:01 | 43.77828 | 10.88514 | 21333 ft | 429 kts | 14° |
| 2026-05-09 10:01 | 43.80667 | 10.89863 | 20747 ft | 424 kts | 14° |
| 2026-05-09 10:01 | 43.83440 | 10.91177 | 20187 ft | 420 kts | 14° |
| 2026-05-09 10:01 | 43.86204 | 10.92487 | 19611 ft | 416 kts | 14° |
| 2026-05-09 10:02 | 43.88868 | 10.93750 | 19044 ft | 410 kts | 14° |
| 2026-05-09 10:02 | 43.91576 | 10.95035 | 18474 ft | 406 kts | 14° |
| 2026-05-09 10:02 | 43.94228 | 10.96294 | 17917 ft | 402 kts | 15° |
| 2026-05-09 10:02 | 43.96886 | 10.97559 | 17364 ft | 399 kts | 15° |
| 2026-05-09 10:03 | 43.99496 | 10.98803 | 16816 ft | 396 kts | 15° |
| 2026-05-09 10:03 | 44.02074 | 11.00036 | 16266 ft | 394 kts | 17° |
| 2026-05-09 10:03 | 44.04634 | 11.01397 | 15679 ft | 392 kts | 19° |
| 2026-05-09 10:03 | 44.07162 | 11.02805 | 15110 ft | 391 kts | 19° |
| 2026-05-09 10:04 | 44.09671 | 11.04218 | 14537 ft | 388 kts | 20° |
| 2026-05-09 10:04 | 44.12165 | 11.05623 | 13974 ft | 387 kts | 20° |
| 2026-05-09 10:04 | 44.14682 | 11.07038 | 13396 ft | 384 kts | 20° |
| 2026-05-09 10:04 | 44.17147 | 11.08423 | 12837 ft | 381 kts | 21° |
| 2026-05-09 10:05 | 44.19558 | 11.09781 | 12286 ft | 378 kts | 21° |
| 2026-05-09 10:05 | 44.21999 | 11.11155 | 11727 ft | 374 kts | 21° |
| 2026-05-09 10:05 | 44.24361 | 11.12485 | 11347 ft | 362 kts | 21° |
| 2026-05-09 10:05 | 44.26667 | 11.13786 | 11113 ft | 349 kts | 21° |
| 2026-05-09 10:06 | 44.28867 | 11.15025 | 10899 ft | 336 kts | 21° |
| 2026-05-09 10:06 | 44.30998 | 11.16227 | 10695 ft | 324 kts | 21° |
| 2026-05-09 10:06 | 44.33031 | 11.17373 | 10504 ft | 311 kts | 21° |
| 2026-05-09 10:06 | 44.35003 | 11.18487 | 10332 ft | 300 kts | 21° |
| 2026-05-09 10:07 | 44.36915 | 11.19569 | 10189 ft | 287 kts | 21° |
| 2026-05-09 10:07 | 44.38738 | 11.20602 | 10026 ft | 281 kts | 21° |
| 2026-05-09 10:07 | 44.40539 | 11.21619 | 9671 ft | 281 kts | 20° |
| 2026-05-09 10:07 | 44.42432 | 11.22172 | 9275 ft | 279 kts | 355° |
| 2026-05-09 10:08 | 44.44255 | 11.21438 | 8924 ft | 275 kts | 328° |
| 2026-05-09 10:08 | 44.45642 | 11.19648 | 8569 ft | 272 kts | 302° |
| 2026-05-09 10:08 | 44.46522 | 11.17329 | 8248 ft | 269 kts | 296° |
| 2026-05-09 10:08 | 44.47346 | 11.14996 | 7998 ft | 264 kts | 296° |
| 2026-05-09 10:09 | 44.48164 | 11.12710 | 7866 ft | 254 kts | 296° |
| 2026-05-09 10:09 | 44.48943 | 11.10561 | 7748 ft | 246 kts | 296° |
| 2026-05-09 10:09 | 44.49707 | 11.08428 | 7451 ft | 245 kts | 296° |
| 2026-05-09 10:09 | 44.50463 | 11.06309 | 7157 ft | 244 kts | 296° |
| 2026-05-09 10:10 | 44.51228 | 11.04163 | 6867 ft | 243 kts | 296° |
| 2026-05-09 10:10 | 44.51983 | 11.02049 | 6578 ft | 243 kts | 297° |
| 2026-05-09 10:10 | 44.52728 | 10.99958 | 6296 ft | 241 kts | 297° |
| 2026-05-09 10:10 | 44.53474 | 10.97872 | 6016 ft | 241 kts | 297° |
| 2026-05-09 10:11 | 44.54225 | 10.95771 | 5732 ft | 240 kts | 297° |
| 2026-05-09 10:11 | 44.54975 | 10.93669 | 5456 ft | 240 kts | 297° |
| 2026-05-09 10:11 | 44.55877 | 10.91743 | 5139 ft | 240 kts | 320° |
| 2026-05-09 10:11 | 44.57365 | 10.90744 | 4834 ft | 238 kts | 353° |
| 2026-05-09 10:12 | 44.58983 | 10.90983 | 4529 ft | 237 kts | 22° |
| 2026-05-09 10:12 | 44.60475 | 10.92016 | 4254 ft | 235 kts | 28° |
| 2026-05-09 10:12 | 44.61930 | 10.93079 | 3989 ft | 233 kts | 27° |
| 2026-05-09 10:12 | 44.63361 | 10.94116 | 3804 ft | 228 kts | 30° |
| 2026-05-09 10:13 | 44.64475 | 10.95546 | 3668 ft | 218 kts | 64° |
| 2026-05-09 10:13 | 44.64710 | 10.97629 | 3459 ft | 216 kts | 100° |
| 2026-05-09 10:13 | 44.64165 | 10.99549 | 3210 ft | 215 kts | 115° |
| 2026-05-09 10:13 | 44.63482 | 11.01424 | 2959 ft | 215 kts | 116° |
| 2026-05-09 10:14 | 44.62795 | 11.03288 | 2706 ft | 214 kts | 117° |
| 2026-05-09 10:14 | 44.62121 | 11.05124 | 2496 ft | 211 kts | 116° |
| 2026-05-09 10:14 | 44.61458 | 11.06944 | 2460 ft | 207 kts | 116° |
| 2026-05-09 10:14 | 44.60806 | 11.08745 | 2458 ft | 208 kts | 116° |
| 2026-05-09 10:15 | 44.60149 | 11.10563 | 2457 ft | 208 kts | 116° |
| 2026-05-09 10:15 | 44.59496 | 11.12368 | 2389 ft | 208 kts | 116° |
| 2026-05-09 10:15 | 44.58846 | 11.14166 | 2150 ft | 208 kts | 116° |
| 2026-05-09 10:15 | 44.58202 | 11.15949 | 1876 ft | 199 kts | 116° |
| 2026-05-09 10:16 | 44.57597 | 11.17622 | 1662 ft | 186 kts | 116° |
| 2026-05-09 10:16 | 44.57040 | 11.19166 | 1468 ft | 171 kts | 116° |
| 2026-05-09 10:16 | 44.56526 | 11.20592 | 1217 ft | 157 kts | 116° |
| 2026-05-09 10:16 | 44.56054 | 11.21899 | 987 ft | 144 kts | 115° |
| 2026-05-09 10:17 | 44.55624 | 11.23090 | 791 ft | 132 kts | 115° |
| 2026-05-09 10:17 | 44.55212 | 11.24232 | 641 ft | 131 kts | 115° |
| 2026-05-09 10:17 | 44.54799 | 11.25379 | 481 ft | 130 kts | 115° |
| 2026-05-09 10:17 | 44.54395 | 11.26499 | 340 ft | 129 kts | 115° |
| 2026-05-09 10:18 | 44.53993 | 11.27632 | 168 ft | 128 kts | 116° |
| 2026-05-09 10:18 | 44.53586 | 11.28727 | 116 ft | 119 kts | 116° |
| 2026-05-09 10:18 | 44.53310 | 11.29489 | 126 ft | 40 kts | 129° |
| 2026-05-09 10:18 | 44.53140 | 11.29715 | 127 ft | 25 kts | 153° |
| 2026-05-09 10:19 | 44.53070 | 11.29763 | 127 ft | 4 kts | 152° |
| 2026-05-09 10:19 | 44.53037 | 11.29785 | 128 ft | 6 kts | 161° |
| 2026-05-09 10:19 | 44.52990 | 11.29770 | 128 ft | 8 kts | 240° |
| 2026-05-09 10:19 | 44.53003 | 11.29686 | 128 ft | 10 kts | 296° |
| 2026-05-09 10:20 | 44.53037 | 11.29589 | 128 ft | 11 kts | 296° |
| 2026-05-09 10:20 | 44.53069 | 11.29499 | 127 ft | 6 kts | 296° |
| 2026-05-09 10:20 | 44.53069 | 11.29458 | 127 ft | 4 kts | 224° |
| 2026-05-09 10:20 | 44.53047 | 11.29439 | 127 ft | 3 kts | 208° |
| 2026-05-09 10:21 | 44.53034 | 11.29430 | 127 ft | 0 kts | 207° |